Time;durP1;ratioP1;P1;durP2;ratioP2;P2;SDS_P1;SDS_P2;PMS_P1;PMS_P2;Temp;Humidity;BMP_temperature;BMP_pressure;BME280_temperature;BME280_humidity;BME280_pressure;Samples;Min_cycle;Max_cycle;Signal;HPM_P1;HPM_P2
2022/10/04 00:01:59;;;;;;;1.37;1.10;;;;;;;7.78;97.55;98548.76;1622388;87;21098;-78
2022/10/04 00:04:42;;;;;;;1.20;1.10;;;;;;;7.72;97.17;98539.64;1614117;88;21070;-78
2022/10/04 00:07:21;;;;;;;1.92;1.32;;;;;;;7.73;97.19;98538.55;1614398;88;21166;-83
2022/10/04 00:09:54;;;;;;;2.10;1.27;;;;;;;7.75;97.10;98529.75;1615397;86;21093;-72
2022/10/04 00:12:24;;;;;;;;;;;;;;;7.75;96.67;98538.58;1643143;87;21363;-77
2022/10/04 00:14:54;;;;;;;2.22;1.15;;;;;;;7.73;96.02;98539.36;1628663;86;20213;-77
2022/10/04 00:17:31;;;;;;;0.80;0.80;;;;;;;7.71;95.63;98552.21;1612774;89;21121;-69
2022/10/04 00:19:58;;;;;;;0.93;0.93;;;;;;;7.71;95.75;98544.72;1614271;88;21218;-70
2022/10/04 00:22:31;;;;;;;1.00;1.00;;;;;;;7.70;95.70;98547.92;1609004;88;21098;-72
2022/10/04 00:25:16;;;;;;;1.47;1.10;;;;;;;7.71;95.69;98552.74;1599024;88;21538;-71
2022/10/04 00:28:23;;;;;;;;;;;;;;;7.73;95.62;98551.93;1626719;88;21033;-71
2022/10/04 00:31:15;;;;;;;0.93;0.93;;;;;;;7.74;95.69;98550.88;1622713;87;20220;-70
2022/10/04 00:34:10;;;;;;;1.32;1.10;;;;;;;7.75;95.55;98545.27;1624317;88;21274;-71
2022/10/04 00:36:41;;;;;;;2.77;1.10;;;;;;;7.74;95.45;98538.30;1624242;87;20997;-69
2022/10/04 00:39:16;;;;;;;0.80;0.80;;;;;;;7.72;95.51;98541.75;1624174;88;21422;-73
2022/10/04 00:41:56;;;;;;;0.88;0.88;;;;;;;7.71;95.39;98559.43;1614793;87;21067;-78
2022/10/04 00:44:34;;;;;;;1.12;0.90;;;;;;;7.73;95.51;98552.74;1624079;87;21119;-75
2022/10/04 00:47:02;;;;;;;1.35;1.00;;;;;;;7.75;95.52;98557.31;1628542;86;21663;-73
2022/10/04 00:49:33;;;;;;;0.98;0.93;;;;;;;7.78;95.45;98542.59;1623580;88;20984;-73
2022/10/04 00:52:13;;;;;;;0.80;0.80;;;;;;;7.79;95.37;98550.91;1631394;86;21016;-73
2022/10/04 00:54:43;;;;;;;0.90;0.90;;;;;;;7.79;95.25;98553.05;1648838;86;21058;-73
2022/10/04 00:57:23;;;;;;;0.78;0.78;;;;;;;7.79;95.27;98562.42;1623658;87;21052;-73
2022/10/04 01:00:00;;;;;;;1.07;0.98;;;;;;;7.78;94.77;98551.96;1622134;88;22060;-73
2022/10/04 01:02:44;;;;;;;2.47;0.90;;;;;;;7.82;95.06;98558.41;1615129;88;21572;-73
2022/10/04 01:05:20;;;;;;;;;;;;;;;7.83;95.11;98544.77;1623609;88;21025;-72
2022/10/04 01:07:57;;;;;;;0.93;0.93;;;;;;;7.85;95.24;98562.73;1666748;86;20141;-73
2022/10/04 01:10:47;;;;;;;0.98;0.98;;;;;;;7.84;95.37;98558.96;1650173;85;21121;-73
2022/10/04 01:13:30;;;;;;;1.00;0.95;;;;;;;7.85;95.52;98553.36;1650075;86;21311;-75
2022/10/04 01:16:18;;;;;;;0.90;0.90;;;;;;;7.86;95.68;98551.49;1644855;86;21036;-74
2022/10/04 01:18:46;;;;;;;1.02;0.90;;;;;;;7.85;95.83;98556.03;1631185;87;21093;-76
2022/10/04 01:21:22;;;;;;;1.67;1.00;;;;;;;7.86;96.02;98558.96;1650105;86;21052;-75
2022/10/04 01:23:56;;;;;;;0.95;0.95;;;;;;;7.86;96.05;98562.98;1591734;88;21254;-77
2022/10/04 01:26:31;;;;;;;0.95;0.95;;;;;;;7.89;96.27;98558.98;1636098;86;21346;-74
2022/10/04 01:29:27;;;;;;;0.90;0.90;;;;;;;7.88;96.19;98564.88;1622613;87;21060;-76
2022/10/04 01:31:58;;;;;;;0.88;0.88;;;;;;;7.87;96.16;98557.09;1650398;87;21071;-76
2022/10/04 01:34:27;;;;;;;3.83;1.07;;;;;;;7.85;96.30;98569.95;1650466;86;21095;-76
2022/10/04 01:36:59;;;;;;;0.80;0.80;;;;;;;7.83;96.48;98556.01;1651536;86;21036;-77
2022/10/04 01:39:27;;;;;;;1.07;0.98;;;;;;;7.86;96.70;98557.62;1650227;87;21222;-77
2022/10/04 01:42:08;;;;;;;0.80;0.80;;;;;;;7.85;96.96;98565.41;1625697;87;21032;-77
2022/10/04 01:44:43;;;;;;;1.12;1.10;;;;;;;7.88;97.10;98590.83;1639629;87;21028;-74
2022/10/04 01:47:21;;;;;;;1.32;1.22;;;;;;;7.87;97.17;98565.12;1635765;87;21079;-74
2022/10/04 01:49:47;;;;;;;0.98;0.98;;;;;;;7.86;97.44;98573.69;1603948;88;21063;-74
2022/10/04 01:52:21;;;;;;;1.00;1.00;;;;;;;7.86;97.70;98580.38;1626660;88;21562;-74
2022/10/04 01:54:52;;;;;;;4.65;1.00;;;;;;;7.87;97.98;98589.22;1626377;88;21130;-75
2022/10/04 01:57:23;;;;;;;1.00;1.00;;;;;;;7.88;98.19;98593.51;1618189;87;21120;-73
2022/10/04 02:00:05;;;;;;;1.00;1.00;;;;;;;7.88;98.46;98578.26;1618435;88;21056;-78
2022/10/04 02:02:53;;;;;;;0.98;0.98;;;;;;;7.90;98.67;98595.41;1642336;86;21123;-76
2022/10/04 02:05:30;;;;;;;1.42;1.00;;;;;;;7.90;98.87;98578.01;1627502;87;21168;-75
2022/10/04 02:08:07;;;;;;;1.17;1.17;;;;;;;7.88;99.18;98584.14;1614373;87;21065;-76
2022/10/04 02:10:35;;;;;;;1.00;1.00;;;;;;;7.88;99.44;98584.95;1620000;88;21636;-77
2022/10/04 02:13:05;;;;;;;0.95;0.95;;;;;;;7.92;99.80;98587.91;1641289;87;21061;-76
2022/10/04 02:15:34;;;;;;;1.10;1.10;;;;;;;7.92;100.00;98590.59;1623386;87;21119;-76
2022/10/04 02:18:01;;;;;;;1.77;1.15;;;;;;;7.97;100.00;98594.62;1584007;88;21271;-77
2022/10/04 02:20:27;;;;;;;1.80;1.42;;;;;;;7.99;100.00;98597.87;1626676;88;20947;-77
2022/10/04 02:23:01;;;;;;;1.10;1.10;;;;;;;8.02;100.00;98589.83;1626683;87;20995;-76
2022/10/04 02:25:27;;;;;;;1.17;1.17;;;;;;;8.05;100.00;98593.34;1626736;87;22295;-76
2022/10/04 02:27:56;;;;;;;1.20;1.10;;;;;;;8.05;100.00;98593.34;1618323;88;20985;-76
2022/10/04 02:30:23;;;;;;;1.12;1.10;;;;;;;8.03;100.00;98595.47;1645997;87;21178;-76
2022/10/04 02:33:01;;;;;;;1.05;0.80;;;;;;;8.01;100.00;98592.27;1619473;88;21168;-76
2022/10/04 02:35:44;;;;;;;0.93;0.93;;;;;;;8.01;100.00;98601.63;1644732;86;21079;-76
2022/10/04 02:38:16;;;;;;;1.05;0.90;;;;;;;8.01;100.00;98606.42;1618492;87;21097;-75
2022/10/04 02:41:03;;;;;;;0.95;0.95;;;;;;;8.02;99.84;98602.69;1614057;88;21121;-77
2022/10/04 02:43:46;;;;;;;1.40;1.00;;;;;;;8.02;99.57;98606.70;1579397;88;21272;-77
2022/10/04 02:46:27;;;;;;;1.12;1.02;;;;;;;8.04;99.39;98603.78;1646065;86;21106;-77
2022/10/04 02:49:04;;;;;;;0.85;0.85;;;;;;;8.03;98.96;98611.00;1642291;87;21102;-77
2022/10/04 02:51:37;;;;;;;1.25;1.25;;;;;;;8.04;98.58;98621.98;1626844;88;21594;-77
2022/10/04 02:54:12;;;;;;;1.17;1.07;;;;;;;8.03;98.19;98613.67;1640889;87;21074;-74
2022/10/04 02:56:38;;;;;;;1.65;0.95;;;;;;;8.03;98.05;98624.92;1627845;87;21634;-75
2022/10/04 02:59:05;;;;;;;1.37;1.10;;;;;;;8.05;97.89;98625.48;1623748;87;21066;-74
2022/10/04 03:01:56;;;;;;;1.75;0.90;;;;;;;8.06;97.70;98631.08;1615906;88;21016;-74
2022/10/04 03:04:30;;;;;;;2.08;1.90;;;;;;;8.05;97.26;98651.73;1603712;88;21149;-73
2022/10/04 03:06:57;;;;;;;1.00;1.00;;;;;;;8.05;97.32;98640.20;1650695;85;21084;-75
2022/10/04 03:09:24;;;;;;;2.27;0.90;;;;;;;8.03;97.41;98639.12;1625182;87;21247;-74
2022/10/04 03:11:51;;;;;;;0.90;0.90;;;;;;;8.03;97.57;98643.13;1645445;87;21697;-75
2022/10/04 03:14:22;;;;;;;1.15;0.90;;;;;;;8.02;97.88;98644.19;1646057;86;21617;-74
2022/10/04 03:16:52;;;;;;;0.80;0.80;;;;;;;8.04;98.08;98647.95;1646627;86;21124;-74
2022/10/04 03:19:21;;;;;;;0.98;0.98;;;;;;;8.03;98.12;98663.21;1642207;87;21140;-75
2022/10/04 03:21:52;;;;;;;1.17;1.17;;;;;;;8.04;98.26;98651.97;1626629;88;21032;-73
2022/10/04 03:24:30;;;;;;;0.90;0.90;;;;;;;8.01;98.24;98651.16;1626491;88;21357;-75
2022/10/04 03:26:57;;;;;;;0.82;0.82;;;;;;;7.97;98.38;98666.91;1627869;87;21129;-74
2022/10/04 03:29:26;;;;;;;1.10;1.05;;;;;;;7.96;98.61;98665.85;1645941;87;21058;-73
2022/10/04 03:31:57;;;;;;;0.98;0.98;;;;;;;7.96;98.75;98666.63;1625328;87;21637;-73
2022/10/04 03:34:40;;;;;;;1.00;1.00;;;;;;;7.96;98.81;98667.97;1645971;86;21083;-74
2022/10/04 03:37:14;;;;;;;1.05;1.05;;;;;;;7.97;99.04;98678.96;1646664;86;21022;-73
2022/10/04 03:39:42;;;;;;;;;;;;;;;7.95;99.10;98670.40;1648744;87;21028;-74
2022/10/04 03:42:24;;;;;;;2.15;1.17;;;;;;;7.94;99.15;98678.15;1646398;86;20209;-74
2022/10/04 03:44:55;;;;;;;0.78;0.78;;;;;;;7.91;99.25;98674.66;1616950;87;21128;-75
2022/10/04 03:47:30;;;;;;;0.95;0.90;;;;;;;7.89;99.45;98680.79;1634752;87;21881;-77
2022/10/04 03:50:02;;;;;;;0.90;0.90;;;;;;;7.88;99.58;98683.19;1647246;87;21093;-77
2022/10/04 03:52:31;;;;;;;0.75;0.75;;;;;;;7.86;99.63;98696.03;1647628;87;21026;-78
2022/10/04 03:55:04;;;;;;;0.90;0.90;;;;;;;7.87;99.65;98683.71;1647387;87;21086;-75
2022/10/04 03:57:31;;;;;;;1.60;1.50;;;;;;;7.88;99.50;98693.89;1649458;86;21070;-74
2022/10/04 03:59:57;;;;;;;0.80;0.80;;;;;;;7.88;99.50;98693.89;1647246;86;21548;-75
2022/10/04 04:02:41;;;;;;;0.80;0.80;;;;;;;7.88;99.46;98696.57;1647733;87;21034;-77
2022/10/04 04:05:25;;;;;;;0.98;0.98;;;;;;;7.86;99.24;98695.48;1647674;87;21018;-78
2022/10/04 04:08:13;;;;;;;0.70;0.70;;;;;;;7.84;99.07;98696.28;1647246;86;21070;-73
2022/10/04 04:10:50;;;;;;;1.82;0.95;;;;;;;7.83;99.17;98690.64;1650558;85;21116;-75
2022/10/04 04:13:55;;;;;;;0.90;0.90;;;;;;;7.82;99.08;98706.42;1622934;88;21804;-75
2022/10/04 04:16:25;;;;;;;2.83;1.00;;;;;;;7.82;98.88;98703.75;1650189;85;21097;-77
2022/10/04 04:18:52;;;;;;;0.85;0.85;;;;;;;7.84;98.78;98705.66;1624609;87;21036;-74
2022/10/04 04:21:19;;;;;;;0.65;0.65;;;;;;;7.83;98.58;98709.38;1622166;88;21576;-73
2022/10/04 04:24:07;;;;;;;0.90;0.90;;;;;;;7.80;98.41;98720.61;1621603;88;21660;-75
2022/10/04 04:26:39;;;;;;;1.00;1.00;;;;;;;7.75;98.32;98722.44;1620019;87;26615;-76
2022/10/04 04:29:25;;;;;;;;;;;;;;;7.74;98.57;98723.49;1649985;87;21109;-75
2022/10/04 04:32:05;;;;;;;0.95;0.95;;;;;;;7.75;98.67;98724.58;1648048;87;21158;-74
2022/10/04 04:34:36;;;;;;;1.00;1.00;;;;;;;7.77;98.66;98727.02;1648485;87;21108;-74
2022/10/04 04:37:03;;;;;;;6.70;0.80;;;;;;;7.79;98.61;98724.88;1648976;86;21079;-74
2022/10/04 04:39:38;;;;;;;0.80;0.80;;;;;;;7.78;98.56;98730.75;1647853;87;21370;-73
2022/10/04 04:42:20;;;;;;;1.25;0.90;;;;;;;7.76;98.58;98726.20;1645413;87;21563;-74
2022/10/04 04:44:54;;;;;;;1.00;1.00;;;;;;;7.76;98.69;98728.88;1636532;87;21643;-75
2022/10/04 04:47:35;;;;;;;4.20;0.90;;;;;;;7.76;98.75;98729.41;1646223;87;21008;-75
2022/10/04 04:50:20;;;;;;;0.90;0.90;;;;;;;7.75;98.75;98737.16;1648795;86;21067;-74
2022/10/04 04:53:06;;;;;;;1.02;1.00;;;;;;;7.75;98.92;98752.69;1624020;87;21574;-73
2022/10/04 04:55:43;;;;;;;1.10;1.00;;;;;;;7.77;98.97;98750.55;1645281;87;21075;-74
2022/10/04 04:58:20;;;;;;;1.07;1.07;;;;;;;7.78;98.80;98766.08;1648917;86;21085;-76
2022/10/04 05:00:55;;;;;;;1.85;1.00;;;;;;;7.75;98.74;98762.05;1646646;87;20997;-73
2022/10/04 05:03:22;;;;;;;0.90;0.90;;;;;;;7.75;98.86;98766.59;1645567;87;21088;-75
2022/10/04 05:05:50;;;;;;;0.80;0.80;;;;;;;7.77;98.84;98775.19;1649068;87;21267;-77
2022/10/04 05:08:23;;;;;;;1.42;1.30;;;;;;;7.78;98.91;98768.22;1648414;86;21002;-76
2022/10/04 05:10:59;;;;;;;;;;;;;;;7.81;98.94;98777.11;1651910;86;20983;-75
2022/10/04 05:13:31;;;;;;;1.10;1.00;;;;;;;7.86;99.06;98777.68;1649022;86;20179;-73
2022/10/04 05:15:57;;;;;;;0.88;0.88;;;;;;;7.91;98.91;98781.73;1647930;85;21168;-75
2022/10/04 05:18:31;;;;;;;1.77;0.82;;;;;;;7.93;98.60;98792.17;1629474;87;21146;-75
2022/10/04 05:21:12;;;;;;;1.00;1.00;;;;;;;7.92;98.36;98790.55;1641898;87;21008;-76
2022/10/04 05:23:40;;;;;;;2.15;1.10;;;;;;;7.92;98.39;98791.89;1645104;87;21829;-76
2022/10/04 05:26:11;;;;;;;0.90;0.90;;;;;;;7.93;98.53;98801.55;1644766;86;21004;-74
2022/10/04 05:28:38;;;;;;;1.10;1.00;;;;;;;7.96;98.50;98809.87;1646510;87;21087;-77
2022/10/04 05:31:13;;;;;;;1.30;1.20;;;;;;;7.99;98.37;98805.36;1646155;86;21135;-73
2022/10/04 05:33:49;;;;;;;1.00;1.00;;;;;;;8.02;98.30;98808.86;1649237;86;21579;-75
2022/10/04 05:36:36;;;;;;;0.95;0.95;;;;;;;8.04;97.98;98812.09;1621368;87;21087;-74
2022/10/04 05:39:31;;;;;;;1.10;1.05;;;;;;;8.02;97.88;98818.75;1621543;88;21052;-72
2022/10/04 05:42:22;;;;;;;1.72;1.60;;;;;;;8.05;98.01;98836.48;1649724;86;21037;-74
2022/10/04 05:44:52;;;;;;;0.93;0.93;;;;;;;8.05;98.10;98824.44;1651267;84;22265;-72
2022/10/04 05:47:22;;;;;;;1.00;1.00;;;;;;;8.09;98.09;98830.89;1632720;86;21133;-77
2022/10/04 05:49:52;;;;;;;0.90;0.90;;;;;;;8.12;98.03;98847.78;1635128;87;21576;-75
2022/10/04 05:52:33;;;;;;;1.00;1.00;;;;;;;8.14;97.99;98836.82;1634718;87;21087;-78
2022/10/04 05:55:26;;;;;;;1.20;1.10;;;;;;;8.15;97.98;98838.45;1654566;86;21024;-74
2022/10/04 05:58:17;;;;;;;1.10;1.10;;;;;;;8.15;98.06;98845.14;1622363;86;21313;-76
2022/10/04 06:01:09;;;;;;;1.20;1.10;;;;;;;8.18;98.15;98842.75;1634767;87;21128;-79
2022/10/04 06:03:47;;;;;;;1.05;1.05;;;;;;;8.24;98.23;98840.40;1654162;86;21044;-75
2022/10/04 06:06:41;;;;;;;2.83;1.20;;;;;;;8.29;98.15;98853.03;1634088;86;21011;-74
2022/10/04 06:09:34;;;;;;;1.57;1.47;;;;;;;8.34;98.04;98850.95;1594479;90;21013;-76
2022/10/04 06:12:28;;;;;;;1.47;1.20;;;;;;;8.37;97.97;98859.80;1613835;88;21846;-74
2022/10/04 06:15:26;;;;;;;1.47;1.30;;;;;;;8.40;98.01;98854.73;1640819;87;21125;-76
2022/10/04 06:18:08;;;;;;;1.22;1.17;;;;;;;8.42;97.86;98859.84;1629604;86;21152;-73
2022/10/04 06:20:43;;;;;;;1.35;1.25;;;;;;;8.45;98.05;98866.84;1619299;87;21031;-75
2022/10/04 06:23:17;;;;;;;1.62;1.52;;;;;;;8.50;97.96;98871.42;1636531;87;21580;-74
2022/10/04 06:25:58;;;;;;;1.55;1.45;;;;;;;8.55;98.04;98870.94;1619245;87;21076;-74
2022/10/04 06:28:36;;;;;;;3.47;2.25;;;;;;;8.64;98.12;98876.09;1619923;87;21128;-74
2022/10/04 06:31:27;;;;;;;4.60;1.27;;;;;;;8.68;97.75;98886.57;1619748;88;21076;-76
2022/10/04 06:34:11;;;;;;;2.15;1.55;;;;;;;8.70;97.51;98873.73;1624691;87;21141;-73
2022/10/04 06:37:35;;;;;;;2.40;1.40;;;;;;;8.73;97.38;98887.14;1619366;88;21107;-73
2022/10/04 06:40:43;;;;;;;1.80;1.40;;;;;;;8.77;97.11;98890.14;1613080;88;21782;-73
2022/10/04 06:43:37;;;;;;;1.52;1.42;;;;;;;8.80;97.03;98889.08;1601435;89;21073;-73
2022/10/04 06:46:36;;;;;;;1.92;1.60;;;;;;;8.87;96.51;98919.70;1611222;88;21103;-75
2022/10/04 06:49:46;;;;;;;1.80;1.70;;;;;;;8.92;96.58;98903.09;1600198;89;21085;-74
2022/10/04 06:52:33;;;;;;;3.27;1.40;;;;;;;8.97;96.15;98903.69;1633278;87;21560;-72
2022/10/04 06:55:20;;;;;;;1.50;1.40;;;;;;;8.98;96.03;98895.36;1629572;87;21120;-73
2022/10/04 06:58:25;;;;;;;1.77;1.67;;;;;;;9.01;95.90;98916.31;1621020;87;21596;-73
2022/10/04 07:01:17;;;;;;;3.17;1.62;;;;;;;9.08;95.86;98910.71;1619826;88;21639;-71
2022/10/04 07:04:08;;;;;;;1.92;1.72;;;;;;;9.15;95.31;98914.80;1605958;89;21125;-73
2022/10/04 07:06:47;;;;;;;1.92;1.42;;;;;;;9.21;94.94;98910.24;1605912;89;21152;-71
2022/10/04 07:09:22;;;;;;;2.30;2.10;;;;;;;9.24;94.56;98919.66;1630067;87;21161;-72
2022/10/04 07:11:58;;;;;;;1.82;1.72;;;;;;;9.24;94.30;98926.37;1631525;87;21106;-75
2022/10/04 07:14:34;;;;;;;1.45;1.35;;;;;;;9.25;94.21;98926.65;1632054;86;22252;-75
2022/10/04 07:17:04;;;;;;;;;;;;;;;9.26;94.11;98926.37;1634121;87;21082;-74
2022/10/04 07:19:43;;;;;;;1.72;1.62;;;;;;;9.30;94.06;98937.41;1631598;87;20164;-74
2022/10/04 07:22:36;;;;;;;5.45;1.57;;;;;;;9.31;93.44;98949.73;1632156;87;21917;-75
2022/10/04 07:25:15;;;;;;;2.77;2.20;;;;;;;9.30;93.23;98939.56;1632067;87;21694;-74
2022/10/04 07:31:23;;;;;;;4.87;1.70;;;;;;;9.30;92.74;98946.27;1636785;87;21071;-75
2022/10/04 07:33:54;;;;;;;1.62;1.52;;;;;;;9.32;92.71;98955.39;1537829;90;21119;-74
2022/10/04 07:36:28;;;;;;;1.60;1.42;;;;;;;9.35;92.45;98956.23;1621513;87;21629;-75
2022/10/04 07:39:00;;;;;;;6.50;1.62;;;;;;;9.39;92.45;98964.03;1631824;87;21139;-78
2022/10/04 07:41:35;;;;;;;1.87;1.57;;;;;;;9.39;92.33;98968.05;1632459;87;21042;-76
2022/10/04 07:44:31;;;;;;;1.62;1.52;;;;;;;9.40;92.26;98974.48;1631562;87;21581;-77
2022/10/04 07:47:25;;;;;;;1.80;1.70;;;;;;;9.41;92.31;98977.98;1640187;87;21120;-78
2022/10/04 07:49:54;;;;;;;1.70;1.60;;;;;;;9.45;91.85;98985.78;1642054;87;21227;-77
2022/10/04 07:52:56;;;;;;;1.80;1.70;;;;;;;9.47;91.76;98985.81;1638575;87;20977;-79
2022/10/04 07:55:52;;;;;;;3.27;1.65;;;;;;;9.52;91.77;98991.21;1647534;87;22256;-75
2022/10/04 07:58:30;;;;;;;6.58;1.70;;;;;;;9.56;91.65;98984.78;1655545;85;21080;-73
2022/10/04 08:01:02;;;;;;;2.10;1.52;;;;;;;9.55;91.68;98988.53;1649751;85;21042;-76
2022/10/04 08:03:49;;;;;;;3.58;2.00;;;;;;;9.57;91.87;98990.43;1647678;87;21550;-79
2022/10/04 08:06:30;;;;;;;1.72;1.62;;;;;;;9.61;91.87;98993.67;1620116;86;21071;-76
2022/10/04 08:09:29;;;;;;;3.62;1.87;;;;;;;9.68;91.87;99002.04;1664712;85;21045;-77
2022/10/04 08:12:24;;;;;;;2.02;1.57;;;;;;;9.72;91.83;98991.86;1674932;85;21030;-72
2022/10/04 08:15:15;;;;;;;3.50;1.85;;;;;;;9.74;91.63;99003.13;1653135;85;21126;-75
2022/10/04 08:18:11;;;;;;;2.75;2.00;;;;;;;9.76;91.43;98994.28;1674931;85;21284;-79
2022/10/04 08:20:47;;;;;;;3.00;2.30;;;;;;;9.78;91.56;99006.12;1673653;85;21074;-77
2022/10/04 08:23:22;;;;;;;2.00;1.90;;;;;;;9.79;91.55;99005.84;1659056;85;21042;-77
2022/10/04 08:26:22;;;;;;;2.35;2.15;;;;;;;9.79;91.31;99005.84;1648962;84;21654;-77
2022/10/04 08:32:35;;;;;;;1.70;1.60;;;;;;;9.82;91.11;99020.11;1658981;85;21680;-76
2022/10/04 08:35:35;;;;;;;1.95;1.82;;;;;;;9.78;90.86;99018.20;1654255;85;21058;-76
2022/10/04 08:38:40;;;;;;;3.02;2.83;;;;;;;9.78;91.27;99017.67;1651592;85;21597;-76
2022/10/04 08:41:30;;;;;;;;;;;;;;;9.81;91.60;99021.70;1668348;84;21539;-76
2022/10/04 08:44:35;;;;;;;2.90;2.65;;;;;;;9.82;91.18;99026.01;1584798;90;20203;-78
2022/10/04 08:47:16;;;;;;;;;;;;;;;9.80;91.00;99046.93;1664860;84;21570;-75
2022/10/04 08:50:28;;;;;;;2.00;1.77;;;;;;;9.78;91.37;99049.90;1675440;85;20116;-74
2022/10/04 08:53:19;;;;;;;2.25;1.82;;;;;;;9.80;91.33;99048.27;1606290;87;21126;-75
2022/10/04 08:56:21;;;;;;;2.72;2.08;;;;;;;9.81;91.47;99052.58;1604756;87;21096;-75
2022/10/04 08:59:17;;;;;;;4.10;2.00;;;;;;;9.81;91.22;99062.80;1645818;87;21156;-75
2022/10/04 09:02:30;;;;;;;2.92;2.10;;;;;;;9.85;91.41;99063.07;1644028;87;21168;-77
2022/10/04 09:05:21;;;;;;;2.58;2.37;;;;;;;9.85;91.51;99065.23;1619449;88;21076;-77
2022/10/04 09:08:19;;;;;;;5.35;1.75;;;;;;;9.85;91.77;99069.26;1619545;88;21759;-76
2022/10/04 09:11:12;;;;;;;6.22;2.22;;;;;;;9.85;91.92;99070.59;1637426;87;21143;-77
2022/10/04 09:14:02;;;;;;;2.40;2.20;;;;;;;9.88;92.22;99076.78;1626698;87;21046;-76
2022/10/04 09:16:47;;;;;;;2.35;2.15;;;;;;;9.93;92.32;99086.75;1640149;87;21892;-78
2022/10/04 09:19:34;;;;;;;1.75;1.65;;;;;;;9.96;91.75;99085.71;1620755;87;21127;-77
2022/10/04 09:22:39;;;;;;;2.60;2.40;;;;;;;9.99;91.55;99088.40;1645782;87;21592;-76
2022/10/04 09:25:42;;;;;;;4.22;1.90;;;;;;;9.93;91.28;99096.95;1645556;87;21060;-77
2022/10/04 09:28:47;;;;;;;2.10;1.90;;;;;;;9.93;91.73;99100.98;1664843;86;21078;-75
2022/10/04 09:31:41;;;;;;;3.02;2.22;;;;;;;9.99;91.72;99096.45;1648450;87;21225;-74
2022/10/04 09:34:38;;;;;;;3.35;2.52;;;;;;;10.03;91.48;99118.51;1647798;87;21539;-77
2022/10/04 09:37:30;;;;;;;3.90;2.35;;;;;;;10.09;91.00;99132.78;1633862;86;21151;-75
2022/10/04 09:40:33;;;;;;;2.98;2.65;;;;;;;10.10;90.22;99112.10;1634785;85;21640;-81
2022/10/04 09:43:36;;;;;;;4.30;2.00;;;;;;;10.10;90.07;99116.13;1642863;87;21125;-80
2022/10/04 09:46:36;;;;;;;2.27;2.08;;;;;;;10.10;89.97;99123.66;1644976;85;21138;-75
2022/10/04 09:49:35;;;;;;;2.58;2.35;;;;;;;10.13;89.66;99114.26;1648493;85;20998;-78
2022/10/04 09:52:17;;;;;;;3.40;2.45;;;;;;;10.19;89.56;99132.87;1632796;87;21649;-75
2022/10/04 09:55:03;;;;;;;2.80;2.47;;;;;;;10.23;89.37;99131.28;1644377;85;21156;-76
2022/10/04 09:58:06;;;;;;;4.47;2.52;;;;;;;10.28;88.92;99130.50;1634994;87;21136;-74
2022/10/04 10:01:07;;;;;;;3.90;2.20;;;;;;;10.31;88.84;99129.43;1647694;87;21152;-78
2022/10/04 10:03:59;;;;;;;3.55;2.70;;;;;;;10.33;88.63;99143.96;1633751;87;21088;-70
2022/10/04 10:06:50;;;;;;;2.90;2.60;;;;;;;10.36;88.18;99125.98;1644260;87;21027;-69
2022/10/04 10:15:57;;;;;;;3.35;2.58;;;;;;;10.34;86.94;99149.62;1638443;87;21167;-71
2022/10/04 10:18:53;;;;;;;3.90;2.58;;;;;;;10.32;87.17;99151.21;1579317;87;21124;-69
2022/10/04 10:21:41;;;;;;;4.87;2.77;;;;;;;10.31;87.22;99141.52;1645564;85;21002;-68
2022/10/04 10:24:47;;;;;;;3.72;3.15;;;;;;;10.34;87.15;99138.86;1626774;87;21152;-70
2022/10/04 10:27:49;;;;;;;4.05;2.37;;;;;;;10.36;86.65;99151.52;1623893;87;21183;-68
2022/10/04 10:30:55;;;;;;;3.33;2.80;;;;;;;10.37;85.83;99157.14;1648886;85;21775;-75
2022/10/04 10:34:11;;;;;;;4.80;2.70;;;;;;;10.37;86.25;99145.05;1640440;86;20968;-82
2022/10/04 10:37:21;;;;;;;3.22;2.90;;;;;;;10.38;86.16;99162.80;1639636;87;21020;-73
2022/10/04 10:40:27;;;;;;;3.05;2.75;;;;;;;10.40;86.51;99158.80;1614052;87;21293;-70
2022/10/04 10:43:33;;;;;;;3.22;2.92;;;;;;;10.49;86.76;99149.69;1638958;85;21629;-76
2022/10/04 10:46:31;;;;;;;4.87;2.83;;;;;;;10.56;85.90;99169.06;1643895;85;21115;-73
2022/10/04 10:49:21;;;;;;;3.37;3.08;;;;;;;10.58;85.41;99156.72;1637970;87;21051;-70
2022/10/04 10:52:34;;;;;;;4.55;2.83;;;;;;;10.60;85.25;99174.19;1645899;87;21120;-77
2022/10/04 10:55:26;;;;;;;3.95;3.05;;;;;;;10.61;84.94;99163.72;1633837;87;21067;-77
2022/10/04 10:58:24;;;;;;;4.08;2.52;;;;;;;10.64;84.92;99175.31;1609336;88;21075;-73
2022/10/04 11:01:25;;;;;;;4.45;3.10;;;;;;;10.65;84.42;99183.63;1643389;87;21675;-71
2022/10/04 11:04:26;;;;;;;2.75;2.55;;;;;;;10.65;84.43;99176.09;1611184;88;21120;-73
2022/10/04 11:07:31;;;;;;;4.25;3.02;;;;;;;10.65;84.65;99170.18;1640523;87;21108;-73
2022/10/04 11:10:19;;;;;;;4.40;2.90;;;;;;;10.67;84.35;99179.34;1645315;87;21083;-74
2022/10/04 11:13:27;;;;;;;3.17;2.72;;;;;;;10.72;84.11;99187.43;1643795;85;21566;-74
2022/10/04 11:16:16;;;;;;;4.75;2.52;;;;;;;10.74;83.84;99183.39;1633901;87;22303;-72
2022/10/04 11:19:32;;;;;;;6.85;2.90;;;;;;;10.77;84.10;99182.08;1641518;87;21067;-74
2022/10/04 11:22:22;;;;;;;2.50;2.30;;;;;;;10.78;83.86;99197.95;1645743;87;21131;-75
2022/10/04 11:25:13;;;;;;;3.58;2.50;;;;;;;10.81;83.71;99183.97;1645319;87;21083;-74
2022/10/04 11:28:12;;;;;;;5.35;2.70;;;;;;;10.83;83.17;99210.08;1641652;86;21038;-71
2022/10/04 11:31:00;;;;;;;4.97;2.25;;;;;;;10.82;83.22;99195.02;1631779;87;21128;-75
2022/10/04 11:33:42;;;;;;;3.17;2.87;;;;;;;10.83;83.64;99202.02;1599631;88;21562;-75
2022/10/04 11:36:34;;;;;;;4.65;2.95;;;;;;;10.82;83.37;99197.70;1646761;87;21138;-71
2022/10/04 11:39:24;;;;;;;3.52;3.22;;;;;;;10.83;83.29;99216.00;1621473;87;21110;-68
2022/10/04 11:42:14;;;;;;;2.52;2.33;;;;;;;10.82;83.69;99209.80;1636841;87;21079;-70
2022/10/04 11:44:58;;;;;;;3.72;3.37;;;;;;;10.86;83.75;99219.49;1627329;87;21791;-69
2022/10/04 11:47:47;;;;;;;3.05;2.75;;;;;;;10.90;83.61;99230.00;1601764;88;21062;-69
2022/10/04 11:50:37;;;;;;;3.50;3.20;;;;;;;10.87;83.08;99230.00;1644625;87;21031;-69
2022/10/04 11:53:26;;;;;;;5.72;3.62;;;;;;;10.89;83.21;99214.92;1623874;87;21108;-69
2022/10/04 11:56:19;;;;;;;3.22;2.67;;;;;;;10.87;83.18;99223.28;1650294;85;21092;-73
2022/10/04 11:59:06;;;;;;;5.28;2.65;;;;;;;10.90;83.70;99239.41;1637670;87;22091;-72
2022/10/04 12:02:19;;;;;;;4.00;3.00;;;;;;;10.93;84.08;99241.59;1643563;87;21052;-75
2022/10/04 12:05:18;;;;;;;4.80;3.22;;;;;;;10.88;84.08;99237.55;1644909;87;21060;-70
2022/10/04 12:08:05;;;;;;;4.62;2.70;;;;;;;10.86;85.16;99243.70;1648723;85;21083;-70
2022/10/04 12:10:36;;;;;;;5.97;3.62;;;;;;;10.81;86.10;99236.42;1593435;90;21047;-69
2022/10/04 12:13:59;;;;;;;3.77;3.47;;;;;;;10.76;87.07;99238.28;1639487;87;22326;-71
2022/10/04 12:16:51;;;;;;;5.08;3.80;;;;;;;10.68;88.61;99238.25;1608647;88;21663;-72
2022/10/04 12:19:45;;;;;;;3.80;3.42;;;;;;;10.60;89.33;99237.38;1644001;87;21024;-76
2022/10/04 12:22:45;;;;;;;5.70;4.05;;;;;;;10.59;90.26;99229.06;1645689;87;21310;-75
2022/10/04 12:25:55;;;;;;;4.10;3.08;;;;;;;10.60;90.85;99238.73;1642269;87;21261;-72
2022/10/04 12:29:18;;;;;;;4.92;3.65;;;;;;;10.57;91.33;99247.86;1643682;87;21130;-73
2022/10/04 12:32:11;;;;;;;5.45;3.35;;;;;;;10.52;92.04;99245.14;1648183;87;20968;-72
2022/10/04 12:34:56;;;;;;;3.47;3.17;;;;;;;10.48;92.92;99242.98;1647610;85;24969;-75
2022/10/04 12:37:49;;;;;;;7.10;4.62;;;;;;;10.50;93.44;99248.11;1647550;86;21019;-76
2022/10/04 12:40:27;;;;;;;6.37;3.80;;;;;;;10.50;93.69;99230.63;1631887;87;21258;-72
2022/10/04 12:43:13;;;;;;;6.95;3.67;;;;;;;10.56;94.07;99236.82;1646631;87;21163;-78
2022/10/04 12:46:11;;;;;;;3.98;3.60;;;;;;;10.59;94.08;99239.01;1647382;86;21071;-74
2022/10/04 12:48:49;;;;;;;7.30;3.72;;;;;;;10.55;94.20;99241.95;1642100;87;21175;-70
2022/10/04 12:51:33;;;;;;;4.92;3.22;;;;;;;10.54;94.47;99248.39;1647167;86;21037;-72
2022/10/04 12:54:39;;;;;;;8.93;4.72;;;;;;;10.53;94.37;99253.48;1641519;87;21061;-69
2022/10/04 12:57:17;;;;;;;4.50;4.03;;;;;;;10.51;94.58;99253.73;1562256;88;21215;-69
2022/10/04 12:59:56;;;;;;;7.15;3.47;;;;;;;10.50;94.74;99248.89;1623010;87;21545;-69
2022/10/04 13:02:56;;;;;;;6.10;3.60;;;;;;;10.54;94.92;99257.27;1627509;87;21060;-71
2022/10/04 13:05:40;;;;;;;6.78;3.98;;;;;;;10.59;94.85;99261.86;1622010;88;21248;-71
2022/10/04 13:08:21;;;;;;;4.37;3.98;;;;;;;10.64;94.54;99265.40;1632756;87;21066;-68
2022/10/04 13:11:25;;;;;;;7.42;4.37;;;;;;;10.66;94.22;99264.59;1637793;87;21118;-70
2022/10/04 13:14:21;;;;;;;7.33;4.12;;;;;;;10.71;94.03;99265.96;1620927;86;21109;-72
2022/10/04 13:17:14;;;;;;;6.03;3.65;;;;;;;10.72;93.58;99281.56;1622608;87;21628;-71